KAJR

Habersham County Airport

Cornelia, Georgia, USA
METAR KAJR 182015Z AUTO 26005KT 7SM BKN037 OVC045 14/06 A3005 RMK AO2 T01390058
Observed Flight Rules
Jan-18 @ 20:15 UTC (10 minutes ago) Visual Flight Rules
Wind Visibility Clouds
260° at 5 knots 7 miles
  • Broken at 3,700' AGL
  • Overcast at 4,500' AGL
Temperatures Readings
Current 14°C / 57°F
Dewpoint 6°C / 43°F
Humidity 59%
Altimeter 30.05" Hg
Pressure 1017.62 hPa
Elevation 441
METAR KAJR 182015Z AUTO 26005KT 7SM BKN037 OVC045 14/06 A3005 RMK AO2 T01390058
Observed Flight Rules
Jan-18 @ 20:15 UTC
(10 minutes ago)
VFR
Wind Visibility
260° at 5 knots 7 miles
Clouds
  • Broken at 3,700' AGL
  • Overcast at 4,500' AGL
Temperature Dewpoint
14°C / 57°F 6°C / 43°F
Humidity Altimeter Pressure
59% 30.05" Hg 1017.62 hPa